עמוד ראשי
METAR-TAF:

METAR-TAF

שדות תעופה :

Petersburg, אלסקה, ארצות הברית

קו רוחב: 56-49N, קו אורך: 132-58W, גובה: 0מטר

תצפית מזג אוויר נוכחית

הדו"ח נערך לפני 1 שעות ו 17דקות, בשעה 19:56 UTC
רוח 5קשר מכיוון מזרח/צפון-מזרח
טמפרטורת 13 צלסיוס
לחות 82%
לחץ 1018 hPa
ראות: 16.1קילומטר
עננים בינוניים בגובה 2100רגל
מעונן בגובה 2800רגל

METAR: PAPG 171956Z 07005KT 10SM BKN021 OVC028 13/10 A3005 RMK AO2 SLP179 T01330100

זמן: 13:13 (21:13 UTC)

תחזית

הדו"ח נערך לפני 2 שעות ו 14דקות, בשעה 18:59 UTC
תחזית בתוקף מ 17 ב 19 UTC עד 18 ב 18 UTC
רוח 5קשר מכיוון מזרח/צפון-מזרח
ראות: 10קילומטר
עננים בינוניים בגובה 2100רגל
מעונן בגובה 2800רגל
מ 17 ב 2100UTC
רוח 6קשר מכיוון מזרח/צפון-מזרח
ראות: 10קילומטר
עננים פזורים בגובה 2000רגל
עננים בינוניים בגובה 5000רגל
מ 18 ב 1200UTC
רוח 4קשר עם כיוונים משתנים
ראות: 10קילומטר
מעונן בגובה 2000רגל

TAF: PAPG 171859Z 1719/1818 07005KT P6SM BKN021 OVC028 FM172100 07006KT P6SM SCT020 BKN050 FM181200 VRB04KT P6SM OVC020 AMD LTD TO CLD VIS AND WIND 1806/1815

תצפיות ותחזיות מזג אוויר לגבי יותר מ- 4,000 שדות תעופה ברחבי העולם. דוחות METAR ו- TAF.

התחנות הזמינות מסומנות בנקודות צהובות ואדומות על גבי המפה.

העבר את העכבר לנקודה הצבעונית על מנת לראות את שם התחנה.

לאחר מכן, לחץ כדי לראות את תוכן ואת תחזיות מזג האוויר.

כדי לשנות את המפה: לחץ על הכפתורים הירוקים עם הפלוס השחור כדי להתקרב; על הכפתור הירוק עם המקף כדי להתרחק; או בחיצים הירוקים למפות סמוכות.


METAR-TAF: